Time,TemperatureF,DewpointF,PressureIn,WindDirection,WindDirectionDegrees,WindSpeedMPH,WindSpeedGustMPH,Humidity,HourlyPrecipIn,Conditions,Clouds,dailyrainin,SolarRadiationWatts/m^2,SoftwareType,DateUTC
2013-03-11 00:22:00,27.0,20.0,-100.00,NNE,20,6.0,8.0,76,0.00,,,0.49,0.000000,,2013-03-11 06:22:00,
2013-03-11 00:32:00,27.0,20.0,-100.00,NNE,20,6.0,8.0,76,0.00,,,0.49,0.000000,,2013-03-11 06:32:00,
2013-03-11 00:42:00,27.0,20.0,-100.00,NNE,20,6.0,8.0,76,0.00,,,0.49,0.000000,,2013-03-11 06:42:00,
2013-03-11 00:52:00,27.0,20.0,-100.00,NNE,20,6.0,8.0,76,0.00,,,0.49,0.000000,,2013-03-11 06:52:00,
2013-03-11 01:22:00,26.0,21.0,-100.00,NNE,31,4.0,7.0,81,0.00,,,0.49,0.000000,,2013-03-11 07:22:00,
2013-03-11 01:32:00,26.0,21.0,-100.00,NNE,31,4.0,7.0,81,0.00,,,0.49,0.000000,,2013-03-11 07:32:00,
2013-03-11 01:42:00,26.0,21.0,-100.00,NNE,31,4.0,7.0,81,0.00,,,0.49,0.000000,,2013-03-11 07:42:00,
2013-03-11 01:52:00,26.0,21.0,-100.00,NNE,31,4.0,7.0,81,0.00,,,0.49,0.000000,,2013-03-11 07:52:00,
2013-03-11 02:22:00,25.0,20.0,-100.00,NNE,15,3.0,7.0,80,0.00,,,-99.99,0.000000,,2013-03-11 08:22:00,
2013-03-11 02:32:00,25.0,20.0,-100.00,NNE,15,3.0,7.0,80,0.00,,,-99.99,0.000000,,2013-03-11 08:32:00,
2013-03-11 02:42:00,25.0,20.0,-100.00,NNE,15,3.0,7.0,80,0.00,,,-99.99,0.000000,,2013-03-11 08:42:00,
2013-03-11 02:52:00,25.0,20.0,-100.00,NNE,15,3.0,7.0,80,0.00,,,-99.99,0.000000,,2013-03-11 08:52:00,
2013-03-11 03:22:00,24.0,20.0,-100.00,NNE,27,4.0,8.0,83,0.00,,,0.49,0.000000,,2013-03-11 09:22:00,
2013-03-11 03:32:00,24.0,20.0,-100.00,NNE,27,4.0,8.0,83,0.00,,,0.49,0.000000,,2013-03-11 09:32:00,
2013-03-11 03:42:00,24.0,20.0,-100.00,NNE,27,4.0,8.0,83,0.00,,,0.49,0.000000,,2013-03-11 09:42:00,
2013-03-11 03:52:00,24.0,20.0,-100.00,NNE,27,4.0,8.0,83,0.00,,,0.49,0.000000,,2013-03-11 09:52:00,
2013-03-11 04:22:00,24.0,20.0,-100.00,ENE,63,0.0,6.0,83,0.00,,,0.49,0.000000,,2013-03-11 10:22:00,
2013-03-11 04:32:00,24.0,20.0,-100.00,ENE,63,0.0,6.0,83,0.00,,,0.49,0.000000,,2013-03-11 10:32:00,
2013-03-11 04:42:00,24.0,20.0,-100.00,ENE,63,0.0,6.0,83,0.00,,,0.49,0.000000,,2013-03-11 10:42:00,
2013-03-11 04:52:00,24.0,20.0,-100.00,ENE,63,0.0,6.0,83,0.00,,,0.49,0.000000,,2013-03-11 10:52:00,
2013-03-11 05:22:00,23.0,19.0,-100.00,East,79,2.0,9.0,84,0.00,,,-99.99,0.000000,,2013-03-11 11:22:00,
2013-03-11 05:32:00,23.0,19.0,-100.00,East,79,2.0,9.0,84,0.00,,,-99.99,0.000000,,2013-03-11 11:32:00,
2013-03-11 05:42:00,23.0,19.0,-100.00,East,79,2.0,9.0,84,0.00,,,-99.99,0.000000,,2013-03-11 11:42:00,
2013-03-11 05:52:00,23.0,19.0,-100.00,East,79,2.0,9.0,84,0.00,,,-99.99,0.000000,,2013-03-11 11:52:00,
2013-03-11 06:22:00,23.0,19.0,-100.00,NE,47,1.0,7.0,84,0.00,,,-99.99,0.000000,,2013-03-11 12:22:00,
2013-03-11 06:42:00,23.0,19.0,-100.00,NE,47,1.0,7.0,84,0.00,,,-99.99,0.000000,,2013-03-11 12:42:00,
2013-03-11 06:52:00,23.0,19.0,-100.00,NE,47,1.0,7.0,84,0.00,,,-99.99,0.000000,,2013-03-11 12:52:00,
2013-03-11 07:42:00,22.0,18.0,-100.00,NNE,13,3.0,4.0,83,0.00,,,-99.99,0.000000,,2013-03-11 13:42:00,
2013-03-11 07:52:00,22.0,18.0,-100.00,NNE,13,3.0,4.0,83,0.00,,,-99.99,0.000000,,2013-03-11 13:52:00,
2013-03-11 11:24:00,37.0,19.0,-100.00,SW,222,3.0,7.0,48,0.00,,,-99.99,554.000000,,2013-03-11 17:24:00,
2013-03-11 11:42:00,37.0,19.0,-100.00,SW,222,3.0,7.0,48,0.00,,,-99.99,554.000000,,2013-03-11 17:42:00,
2013-03-11 11:52:00,37.0,19.0,-100.00,SW,222,3.0,7.0,48,0.00,,,-99.99,554.000000,,2013-03-11 17:52:00,
2013-03-11 12:22:00,40.0,23.0,-100.00,SSW,197,4.0,9.0,51,0.00,,,0.28,723.000000,,2013-03-11 18:22:00,
2013-03-11 12:42:00,40.0,23.0,-100.00,SSW,197,4.0,9.0,51,0.00,,,0.28,723.000000,,2013-03-11 18:42:00,
2013-03-11 12:52:00,40.0,23.0,-100.00,SSW,197,4.0,9.0,51,0.00,,,0.28,723.000000,,2013-03-11 18:52:00,
2013-03-11 13:22:00,42.0,25.0,-100.00,South,180,4.0,10.0,51,0.00,,,0.14,797.000000,,2013-03-11 19:22:00,
2013-03-11 13:32:00,42.0,25.0,-100.00,South,180,4.0,10.0,51,0.00,,,0.14,797.000000,,2013-03-11 19:32:00,
2013-03-11 13:42:00,42.0,25.0,-100.00,South,180,4.0,10.0,51,0.00,,,0.14,797.000000,,2013-03-11 19:42:00,
2013-03-11 13:52:00,42.0,25.0,-100.00,South,180,4.0,10.0,51,0.00,,,0.14,797.000000,,2013-03-11 19:52:00,
2013-03-11 14:22:00,43.0,26.0,-100.00,South,191,7.0,13.0,50,0.00,,,0.00,851.000000,,2013-03-11 20:22:00,
2013-03-11 14:32:00,43.0,26.0,-100.00,South,191,7.0,13.0,50,0.00,,,0.00,851.000000,,2013-03-11 20:32:00,
2013-03-11 14:43:00,43.0,26.0,-100.00,South,191,7.0,13.0,50,0.00,,,0.00,851.000000,,2013-03-11 20:43:00,
2013-03-11 14:52:00,43.0,26.0,-100.00,South,191,7.0,13.0,50,0.00,,,0.00,851.000000,,2013-03-11 20:52:00,
2013-03-11 15:22:00,46.0,26.0,-100.00,SSW,206,4.0,12.0,46,0.00,,,0.00,805.000000,,2013-03-11 21:22:00,
2013-03-11 15:32:00,46.0,26.0,-100.00,SSW,206,4.0,12.0,46,0.00,,,0.00,805.000000,,2013-03-11 21:32:00,
2013-03-11 15:43:00,46.0,26.0,-100.00,SSW,206,4.0,12.0,46,0.00,,,0.00,805.000000,,2013-03-11 21:43:00,
2013-03-11 15:52:00,46.0,26.0,-100.00,SSW,206,4.0,12.0,46,0.00,,,0.00,805.000000,,2013-03-11 21:52:00,
2013-03-11 16:22:00,48.0,25.0,-100.00,WSW,257,5.0,13.0,40,0.00,,,0.00,718.000000,,2013-03-11 22:22:00,
2013-03-11 16:32:00,48.0,25.0,-100.00,WSW,257,5.0,13.0,40,0.00,,,0.00,718.000000,,2013-03-11 22:32:00,
2013-03-11 16:43:00,48.0,25.0,-100.00,WSW,257,5.0,13.0,40,0.00,,,0.00,718.000000,,2013-03-11 22:43:00,
2013-03-11 16:52:00,48.0,25.0,-100.00,WSW,257,5.0,13.0,40,0.00,,,0.00,718.000000,,2013-03-11 22:52:00,
2013-03-11 17:22:00,50.0,27.0,-100.00,SSE,165,6.0,12.0,41,0.00,,,-99.99,538.000000,,2013-03-11 23:22:00,
2013-03-11 17:32:00,50.0,27.0,-100.00,SSE,165,6.0,12.0,41,0.00,,,-99.99,538.000000,,2013-03-11 23:32:00,
2013-03-11 17:43:00,50.0,27.0,-100.00,SSE,165,6.0,12.0,41,0.00,,,-99.99,538.000000,,2013-03-11 23:43:00,
2013-03-11 17:52:00,50.0,27.0,-100.00,SSE,165,6.0,12.0,41,0.00,,,-99.99,538.000000,,2013-03-11 23:52:00,
2013-03-11 18:22:00,49.0,26.0,-100.00,SE,139,4.0,9.0,41,0.00,,,0.00,321.000000,,2013-03-12 00:22:00,
2013-03-11 18:32:00,49.0,26.0,-100.00,SE,139,4.0,9.0,41,0.00,,,0.00,321.000000,,2013-03-12 00:32:00,
2013-03-11 18:42:00,49.0,26.0,-100.00,SE,139,4.0,9.0,41,0.00,,,0.00,321.000000,,2013-03-12 00:42:00,
2013-03-11 18:52:00,49.0,26.0,-100.00,SE,139,4.0,9.0,41,0.00,,,0.00,321.000000,,2013-03-12 00:52:00,
2013-03-11 19:22:00,47.0,25.0,-100.00,East,100,3.0,7.0,41,0.00,,,0.00,136.000000,,2013-03-12 01:22:00,
2013-03-11 19:32:00,47.0,25.0,-100.00,East,100,3.0,7.0,41,0.00,,,0.00,136.000000,,2013-03-12 01:32:00,
2013-03-11 19:42:00,47.0,25.0,-100.00,East,100,3.0,7.0,41,0.00,,,0.00,136.000000,,2013-03-12 01:42:00,
2013-03-11 19:52:00,47.0,25.0,-100.00,East,100,3.0,7.0,41,0.00,,,0.00,136.000000,,2013-03-12 01:52:00,
2013-03-11 20:22:00,40.0,24.0,-100.00,NE,45,5.0,9.0,53,0.00,,,0.00,5.000000,,2013-03-12 02:22:00,
2013-03-11 20:32:00,40.0,24.0,-100.00,NE,45,5.0,9.0,53,0.00,,,0.00,5.000000,,2013-03-12 02:32:00,
2013-03-11 20:42:00,40.0,24.0,-100.00,NE,45,5.0,9.0,53,0.00,,,0.00,5.000000,,2013-03-12 02:42:00,
2013-03-11 20:51:00,40.0,24.0,-100.00,NE,45,5.0,9.0,53,0.00,,,0.00,5.000000,,2013-03-12 02:51:00,
2013-03-11 21:22:00,36.0,24.0,-100.00,North,1,5.0,7.0,61,0.00,,,0.00,0.000000,,2013-03-12 03:22:00,
2013-03-11 21:32:00,36.0,24.0,-100.00,North,1,5.0,7.0,61,0.00,,,0.00,0.000000,,2013-03-12 03:32:00,
2013-03-11 21:42:00,36.0,24.0,-100.00,North,1,5.0,7.0,61,0.00,,,0.00,0.000000,,2013-03-12 03:42:00,
2013-03-11 21:51:00,36.0,24.0,-100.00,North,1,5.0,7.0,61,0.00,,,0.00,0.000000,,2013-03-12 03:51:00,
2013-03-11 22:22:00,35.0,23.0,-100.00,NNE,32,4.0,8.0,61,0.00,,,0.00,0.000000,,2013-03-12 04:22:00,
2013-03-11 22:32:00,35.0,23.0,-100.00,NNE,32,4.0,8.0,61,0.00,,,0.00,0.000000,,2013-03-12 04:32:00,
2013-03-11 22:42:00,35.0,23.0,-100.00,NNE,32,4.0,8.0,61,0.00,,,0.00,0.000000,,2013-03-12 04:42:00,
2013-03-11 22:52:00,35.0,23.0,-100.00,NNE,32,4.0,8.0,61,0.00,,,0.00,0.000000,,2013-03-12 04:52:00,
2013-03-11 23:22:00,34.0,23.0,-100.00,NNE,23,4.0,8.0,65,0.00,,,0.00,0.000000,,2013-03-12 05:22:00,
2013-03-11 23:32:00,34.0,23.0,-100.00,NNE,23,4.0,8.0,65,0.00,,,0.00,0.000000,,2013-03-12 05:32:00,
2013-03-11 23:42:00,34.0,23.0,-100.00,NNE,23,4.0,8.0,65,0.00,,,0.00,0.000000,,2013-03-12 05:42:00,
2013-03-11 23:52:00,34.0,23.0,-100.00,NNE,23,4.0,8.0,65,0.00,,,0.00,0.000000,,2013-03-12 05:52:00,